新千歳空港の過去48時間の天気

新千歳空港 (Sapporo/New Chitose)

現在時刻: 3/22 10:02 JST (3/22 01:02 UTC) 以下の時間は現地時間です。

過去48時間のMETAR気象情報
時間 風向 風速(m/s) 視程 気温(℃) 湿度(%) 気圧(hPa) 天気現象
22 09:30 北北西 14 10km以上 3 70 999 弱いしゅう雪
22 09:00 北北西 12 10km以上 3 70 998 弱いしゅう雪
22 08:30 北北西 14 10km以上 3 70 997
22 08:00 北北西 14 10km以上 2 75 996
22 07:30 北北西 12 10km以上 3 75 995
22 07:16 北北西 12 10km以上 2 81 995
22 07:00 北北西 10 10km以上 2 81 995 弱いしゅう雨 弱いしゅう雪
22 06:30 8 10km以上 2 87 994 弱いしゅう雨 弱いしゅう雪
22 06:00 6 10km以上 3 87 994
22 05:30 北北東 4 10km以上 3 87 993
22 05:00 北北東 4 10km以上 4 87 993
22 04:30 北北東 3 10km以上 5 87 992
22 04:00 3 10km以上 5 87 992
22 03:30 3 10km以上 5 87 991
22 03:00 北北西 5 10km以上 6 81 990
22 02:30 西 10 10km以上 8 71 988
22 02:00 南西 6 10km以上 7 81 988 弱いしゅう雨
22 01:30 南西 8 10km以上 7 81 987
22 01:00 3 10km以上 6 87 987
22 00:30 北東 4 8000m 5 93 987 弱いしゅう雨
22 00:00 5 7000m 5 93 987 弱いしゅう雨
21 23:30 7 7000m 4 93 988 弱いしゅう雨
21 23:00 11 6000m 5 87 988 弱いしゅう雨
21 22:32 9 6000m 5 93 989 弱いしゅう雨
21 22:30 9 6000m 5 93 989 弱いしゅう雨
21 22:16 南南東 10 6000m 5 93 989 弱いしゅう雨
21 22:00 南南東 10 5000m 6 87 989 弱いしゅう雨 もや
21 21:30 南南東 8 5000m 6 93 990 弱いしゅう雨 もや
21 21:19 南南東 7 4000m 6 93 990 弱いしゅう雨 もや
21 21:00 不定 2 3500m 4 100 990 弱いしゅう雨 もや
21 20:30 不定 1 2000m 4 93 991 弱いしゅう雨 もや
21 20:12 南南西 2 3000m 3 100 992 弱いしゅう雨 もや
21 20:00 2 3000m 3 93 992 弱いしゅう雨 もや
21 19:39 2 3000m 4 87 993 弱いしゅう雨 もや
21 19:00 南南東 2 4900m 4 87 994 弱いしゅう雨 もや
21 18:30 2 5000m 4 87 995 弱いしゅう雨 もや
21 18:00 2 6000m 4 93 996 弱いしゅう雨
21 17:30 3 7000m 5 81 997 弱いしゅう雨
21 17:00 5 7000m 5 75 996 弱いしゅう雨
21 16:30 5 10km以上 5 70 998 弱いしゅう雨
21 16:00 7 10km以上 6 65 998
21 15:30 7 10km以上 6 65 999
21 15:00 南南西 9 10km以上 5 65 1000
21 14:46 南南西 8 10km以上 6 61 999
21 14:30 9 10km以上 8 53 1000
21 14:00 南南西 6 10km以上 9 50 1000
21 13:30 7 10km以上 9 53 1001
21 13:00 3 10km以上 9 53 1002
21 12:30 6 10km以上 9 53 1003
21 12:00 南南西 6 10km以上 10 50 1004
21 11:30 6 10km以上 10 50 1005
21 11:00 南南西 5 10km以上 10 54 1006
21 10:30 南南西 5 10km以上 9 62 1006
21 10:00 南南西 4 10km以上 8 66 1007
21 09:30 南南西 4 10km以上 7 70 1007
21 09:00 南西 4 10km以上 6 70 1007
21 08:30 5 10km以上 5 75 1008
21 08:00 8 10km以上 5 75 1008
21 07:30 南南西 3 10km以上 5 75 1008
21 07:00 5 10km以上 5 81 1009
21 06:30 4 10km以上 4 87 1009
21 06:00 4 10km以上 4 87 1009
21 05:30 3 10km以上 4 81 1009
21 05:00 南南東 4 10km以上 5 81 1009
21 04:30 南東 3 10km以上 4 87 1009
21 04:00 南南東 2 10km以上 4 87 1010
21 03:30 3 10km以上 3 87 1010
21 03:00 2 10km以上 4 81 1010
21 02:30 南南西 3 10km以上 3 87 1010
21 02:00 5 10km以上 3 87 1011
21 01:30 4 10km以上 4 81 1011
21 01:00 南南西 2 10km以上 4 81 1011
21 00:30 3 10km以上 4 81 1011
21 00:00 不定 1 10km以上 5 75 1011
20 23:30 不定 1 10km以上 5 75 1011
20 23:00 不定 1 10km以上 6 70 1011
20 22:30 5 10km以上 7 70 1012
20 22:00 4 10km以上 5 75 1012
20 21:30 3 10km以上 5 75 1012
20 21:00 南西 3 10km以上 6 70 1012
20 20:30 2 10km以上 6 76 1012
20 20:00 2 10km以上 7 70 1012
20 19:30 南南東 3 10km以上 7 70 1012
20 19:00 5 10km以上 7 70 1012
20 18:30 南南東 4 10km以上 7 70 1012
20 18:00 南東 3 10km以上 7 66 1012
20 17:30 南東 4 10km以上 7 70 1012
20 17:00 南南東 6 10km以上 8 66 1012
20 16:30 南南東 6 10km以上 8 66 1012
20 16:00 南南東 8 10km以上 8 66 1012
20 15:30 8 10km以上 8 66 1012
20 15:00 8 10km以上 9 62 1012
20 14:30 10 10km以上 8 66 1012
20 14:00 10 10km以上 8 61 1012
20 13:30 11 10km以上 8 61 1012
20 13:00 9 10km以上 8 61 1013
20 12:30 11 10km以上 7 66 1013
20 12:00 南南東 9 10km以上 7 61 1013
20 11:30 9 10km以上 6 65 1014
20 11:00 8 10km以上 6 61 1014
20 10:30 7 10km以上 6 57 1015
RJCC 220030Z 33027KT 9999 -SHSN FEW010 SCT015 BKN040 03/M02 Q0999
RJCC 220000Z 34024G36KT 9999 -SHSN FEW010 SCT015 BKN030 03/M02 Q0998
RJCC 212330Z 34027G37KT 9999 FEW010 SCT040 03/M02 Q0997 RMK 1ST010 4CU040 A2945
RJCC 212300Z 34027G38KT 9999 FEW010 SCT040 02/M02 Q0996 RMK 1ST010 4CU040 A2942
RJCC 212230Z 34024KT 9999 FEW010 SCT030 03/M01 Q0995 RMK 1ST010 4CU030 A2940
RJCC 212216Z 34024G34KT 9999 FEW008 SCT025 02/M01 Q0995 RMK 1ST008 4CU025 A2938
RJCC 212200Z 34020KT 9999 -SHRASN FEW008 SCT012 BKN025 02/M01 Q0995
RJCC 212130Z 35015KT 9999 -SHRASN FEW005 BKN010 BKN020 02/00 Q0994 RMK 1ST005 5ST010 6CU020 A2937
RJCC 212100Z 36011KT 9999 FEW005 BKN010 BKN020 03/01 Q0994
RJCC 212030Z 02008KT 9999 FEW005 BKN010 BKN020 03/01 Q0993
RJCC 212000Z 02008KT 9999 FEW005 BKN010 BKN020 04/02 Q0993
RJCC 211930Z 02005KT 9999 FEW005 BKN010 BKN030 05/03 Q0992
RJCC 211900Z 01006KT 320V040 9999 FEW005 BKN010 BKN030 05/03 Q0992
RJCC 211830Z 01006KT 9999 FEW005 BKN010 05/03 Q0991
RJCC 211800Z 33010KT 9999 FEW008 SCT030 06/03 Q0990
RJCC 211730Z 26020KT 9999 FEW006 SCT030 08/03 Q0988
RJCC 211700Z 23011KT 9999 -SHRA FEW006 SCT015 BKN030 07/04 Q0988
RJCC 211630Z 22016KT 9999 FEW006 SCT010 BKN030 07/04 Q0987
RJCC 211600Z VRB06KT 9999 FEW005 SCT007 BKN010 06/04 Q0987
RJCC 211530Z 05007KT 8000 -SHRA FEW002 BKN005 05/04 Q0987
RJCC 211500Z 18010KT 140V220 7000 -SHRA FEW002 BKN003 BKN006 05/04 Q0987
RJCC 211430Z 18013KT 160V220 7000 -SHRA FEW002 BKN005 04/03 Q0988
RJCC 211400Z 17022KT 6000 -SHRA FEW002 BKN006 BKN008 05/03 Q0988
RJCC 211332Z 19018G28KT 6000 -SHRA FEW002 BKN006 BKN008 05/04 Q0989 RMK 1ST002 5ST006 7ST008 A2921
RJCC 211330Z 19017KT 6000 -SHRA FEW002 BKN006 BKN008 05/04 Q0989 RMK 1ST002 5ST006 7ST008 A2921
RJCC 211316Z 16019G29KT 6000 -SHRA FEW002 BKN006 BKN008 05/04 Q0989 RMK 1ST002 5ST006 7ST008 A2921
RJCC 211300Z 16019KT 5000 -SHRA BR FEW002 BKN005 BKN008 06/04 Q0989 RMK 1ST002 5ST005 7ST008 A2922
RJCC 211230Z 16015KT 5000 -SHRA BR FEW001 BKN005 BKN008 06/05 Q0990 RMK 2ST001 5ST005 7ST008 A2925
RJCC 211219Z 15014KT 4000 -SHRA BR SCT001 BKN004 BKN008 06/05 Q0990 RMK 3ST001 5ST004 7ST008 A2925
RJCC 211200Z VRB03KT 3500 -SHRA BR SCT001 BKN004 BKN008 04/04 Q0990 RMK 3ST001 5ST004 7ST008 A2926
RJCC 211130Z VRB02KT 2000 -SHRA BR FEW002 BKN005 BKN008 04/03 Q0991 RMK 2ST002 6ST005 7ST008 A2928
RJCC 211112Z 21004KT 180V250 3000 -SHRA BR FEW002 SCT003 BKN008 03/03 Q0992 RMK 1ST002 4ST003 7ST008 A2930
RJCC 211100Z 17004KT 3000 -SHRA BR FEW003 BKN010 BKN013 03/02 Q0992 RMK 2ST003 5ST010 7ST013 A2931 MOD TURB OBS AT 1042Z 15NM SW CHE BTN FL200 AND FL220 IN CMB B738
RJCC 211039Z 18003KT 130V250 3000 -SHRA BR FEW008 BKN013 04/02 Q0993 RMK 1ST008 7ST013 A2933
RJCC 211000Z 16003KT 100V200 4900 -SHRA BR FEW010 BKN020 04/02 Q0994 RMK 1ST010 7CU020 A2937
RJCC 210930Z 09003KT 060V130 5000 -SHRA BR FEW010 BKN025 04/02 Q0995 RMK 1ST010 7CU025 A2938 P/FR
RJCC 210900Z 09004KT 060V120 6000 -SHRA FEW020 BKN025 04/03 Q0996 RMK 1CU020 7CU025 A2943
RJCC 210830Z 18006KT 7000 -SHRA FEW020 BKN025 05/02 Q0997 RMK 1CU020 7CU025 A2944
RJCC 210800Z 17009KT 7000 -SHRA FEW020 BKN025 05/01 Q0996 RMK 1CU020 7CU025 A2944 P/FR
RJCC 210730Z 19010KT 9999 -SHRA FEW020 BKN025 05/00 Q0998 RMK 2CU020 7CU025 A2948
RJCC 210700Z 19013KT 9999 FEW020 BKN025 BKN090 06/00 Q0998 RMK 1CU020 6CU025 7AC090 A2949
RJCC 210630Z 19014KT 9999 FEW020 BKN025 BKN090 06/M00 Q0999 RMK 1CU020 5CU025 7AC090 A2951
RJCC 210600Z 20017KT 9999 FEW030 BKN090 BKN/// 05/M01 Q1000
RJCC 210546Z 20016G26KT 9999 FEW030 BKN100 BKN/// 06/M01 Q0999 RMK 1CU030 6AC100 A2952
RJCC 210530Z 19017KT 9999 FEW030 SCT070 BKN100 08/M01 Q1000 RMK 1CU030 4AC070 6AC100 A2953
RJCC 210500Z 20012KT 9999 FEW030 BKN080 BKN110 09/M01 Q1000 RMK 1CU030 5AC080 6AC110 A2954 P/FR
RJCC 210430Z 18014KT 9999 FEW030 SCT080 BKN120 09/M00 Q1001 RMK 1CU030 3AC080 6AC120 A2957
RJCC 210400Z 17006KT 130V200 9999 FEW030 SCT080 BKN120 09/00 Q1002 RMK 1CU030 3AC080 6AC120 A2959 P/FR
RJCC 210330Z 17011KT 9999 FEW030 BKN090 BKN/// 09/M00 Q1003 RMK 1CU030 5AC090 A2963 P/FR
RJCC 210300Z 20012KT 9999 FEW030 BKN100 BKN/// 10/M00 Q1004
RJCC 210230Z 19012KT 9999 FEW030 SCT120 BKN/// 10/M00 Q1005 RMK 1CU030 4AC120 A2969
RJCC 210200Z 20010KT 9999 FEW030 SCT120 BKN/// 10/01 Q1006
RJCC 210130Z 20010KT 9999 FEW020 BKN120 BKN/// 09/02 Q1006
RJCC 210100Z 20008KT 9999 FEW020 BKN120 08/02 Q1007 RMK 1CU020 7AC120 A2974
RJCC 210030Z 21007KT 9999 FEW020 BKN100 07/02 Q1007 RMK 1CU020 7AC100 A2975
RJCC 210000Z 22007KT 9999 FEW020 SCT030 BKN100 06/01 Q1007 RMK 1CU020 3CU030 7AC100 A2976
RJCC 202330Z 18010KT 9999 FEW020 SCT025 BKN100 05/01 Q1008 RMK 1CU020 3CU025 7AC100 A2977
RJCC 202300Z 18015KT 9999 FEW020 BKN025 BKN120 05/01 Q1008 RMK 1CU020 5CU025 7AC120 A2979
RJCC 202230Z 20006KT 9999 FEW020 SCT030 BKN120 05/01 Q1008 RMK 1CU020 3CU030 7AC120 A2979
RJCC 202200Z 18009KT 9999 FEW020 SCT030 BKN150 05/02 Q1009 RMK 1CU020 3CU030 7AC150 A2980
RJCC 202130Z 17008KT 9999 FEW020 BKN150 04/02 Q1009 RMK 1CU020 7AC150 A2980
RJCC 202100Z 17008KT 9999 FEW020 BKN150 04/02 Q1009 RMK 1CU020 7AC150 A2980
RJCC 202030Z 17005KT 9999 FEW020 BKN150 04/01 Q1009 RMK 1CU020 7AC150 A2981
RJCC 202000Z 15007KT 9999 FEW020 SCT030 BKN150 05/02 Q1009 RMK 1CU020 3CU030 7AC150 A2981
RJCC 201930Z 14006KT 9999 FEW020 SCT030 BKN150 04/02 Q1009 RMK 1CU020 3CU030 7AC150 A2982
RJCC 201900Z 16004KT 9999 FEW020 BKN030 BKN160 04/02 Q1010 RMK 1CU020 6CU030 7AC160 A2983
RJCC 201830Z 18005KT 9999 FEW020 SCT030 BKN160 03/01 Q1010 RMK 1CU020 3CU030 7AC160 A2984
RJCC 201800Z 19003KT 9999 FEW020 BKN160 04/01 Q1010 RMK 1CU020 7AC160 A2984
RJCC 201730Z 20005KT 9999 FEW020 BKN160 03/01 Q1010 RMK 1CU020 7AC160 A2985
RJCC 201700Z 17009KT 9999 FEW020 BKN160 03/01 Q1011 RMK 1CU020 7AC160 A2986
RJCC 201630Z 19008KT 9999 FEW020 BKN/// 04/01 Q1011
RJCC 201600Z 21004KT 9999 FEW020 BKN/// 04/01 Q1011 RMK 1CU020 A2988
RJCC 201530Z 19005KT 9999 FEW020 BKN/// 04/01 Q1011
RJCC 201500Z VRB01KT 9999 FEW020 BKN/// 05/01 Q1011 RMK 1CU020 A2988
RJCC 201430Z VRB02KT 9999 FEW020 BKN/// 05/01 Q1011
RJCC 201400Z VRB02KT 9999 FEW020 BKN/// 06/01 Q1011
RJCC 201330Z 17009KT 9999 FEW020 BKN150 BKN180 07/02 Q1012 RMK 1CU020 5AC150 7AC180 A2989
RJCC 201300Z 17007KT 9999 FEW020 BKN150 05/01 Q1012 RMK 1CU020 7AC150 A2989
RJCC 201230Z 18005KT 9999 FEW020 BKN150 05/01 Q1012 RMK 1CU020 7AC150 A2990
RJCC 201200Z 23005KT 180V250 9999 FEW020 BKN150 06/01 Q1012 RMK 1CU020 7AC150 A2991
RJCC 201130Z 19004KT 160V230 9999 FEW020 BKN150 06/02 Q1012 RMK 1CU020 7AC150 A2990
RJCC 201100Z 17004KT 9999 FEW020 BKN150 07/02 Q1012 RMK 1CU020 7AC150 A2990
RJCC 201030Z 15006KT 9999 FEW020 BKN130 07/02 Q1012 RMK 1CU020 7AC130 A2990
RJCC 201000Z 17009KT 9999 FEW020 BKN130 07/02 Q1012 RMK 1CU020 7AC130 A2990
RJCC 200930Z 15007KT 9999 FEW020 BKN170 07/02 Q1012 RMK 1CU020 7AC170 A2990
RJCC 200900Z 14006KT 9999 FEW020 BKN170 07/01 Q1012 RMK 1CU020 7AC170 A2990
RJCC 200830Z 14007KT 100V170 9999 FEW020 SCT150 BKN/// 07/02 Q1012
RJCC 200800Z 15011KT 9999 FEW020 BKN/// 08/02 Q1012 RMK 1CU020 A2989
RJCC 200730Z 15012KT 9999 FEW020 BKN/// 08/02 Q1012
RJCC 200700Z 16015KT 9999 FEW020 BKN/// 08/02 Q1012 RMK 1CU020 A2989
RJCC 200630Z 19015KT 9999 FEW020 BKN/// 08/02 Q1012
RJCC 200600Z 17015KT 9999 FEW010 SCT020 BKN/// 09/02 Q1012 RMK 1ST010 3CU020 A2989
RJCC 200530Z 17020KT 9999 FEW010 BKN020 BKN/// 08/02 Q1012
RJCC 200500Z 18020KT 9999 FEW010 BKN018 08/01 Q1012 RMK 1ST010 6ST018 A2990
RJCC 200430Z 17021KT 9999 FEW010 BKN018 08/01 Q1012 RMK 1ST010 6ST018 A2990
RJCC 200400Z 17018KT 9999 FEW010 BKN018 08/01 Q1013 RMK 1ST010 6ST018 A2992
RJCC 200330Z 17021KT 9999 FEW010 BKN018 07/01 Q1013 RMK 1ST010 7ST018 A2992
RJCC 200300Z 16017KT 9999 FEW010 BKN020 07/00 Q1013 RMK 1ST010 7CU020 A2993
RJCC 200230Z 17017KT 9999 FEW010 BKN020 06/M00 Q1014 RMK 1ST010 7CU020 A2996
RJCC 200200Z 18016KT 9999 FEW010 BKN020 06/M01 Q1014 RMK 1ST010 7CU020 A2996
RJCC 200130Z 18014KT 9999 FEW010 BKN020 06/M02 Q1015 RMK 1ST010 7CU020 A2997